TFM - Tactical Decision Aid (Experimental) INFO Settings

ID: Runway Winds: CIG/VIS Threshold: METAR Board: Map:

KDFW - Dallas/Fort Worth Intl

Updated at: 0545 UTC 04 Sep 2015
Latest TAF at: 0520 UTC 04 Sep 2015

TAF Board

Time0453Z04/06Z04/07Z04/08Z04/09Z04/10Z04/11Z04/12Z04/13Z04/14Z04/15Z04/16Z04/17Z04/18Z
TypeOBSPRVLPRVLPRVLPRVLPRVLPRVLPRVLPRVLPRVLPRVLPRVLPRVLPRVL
VIS10>6>6>6>6>6>6>6>6>6>6>6>6>6
CIG----------------------------
CoverFEWSCTSCTSCTSCTSCTSCTSCTSCTSCTSCTSCTSCTSCT
FltCatVFRVFRVFRVFRVFRVFRVFRVFRVFRVFRVFRVFRVFRVFR
WX----------------------------
WDir130130130130130130130130130130130160160160
WSpd106666666666999
WGst----------------------------
TAF
KDFW 040520Z 0406/0512 13006KT P6SM SCT250
  FM041600 16009KT P6SM SCT060


METAR
KDFW 040453Z 13010KT 10SM FEW300 29/19 A2989 RMK AO2 SLP110 T02890194

TAF/METAR Board Legend

Potential Impact
  None Marginal Slight Moderate High
Visibility (sm) >5 3≤X≤5 1≤X<3 0.5≤X<1 <0.5
Ceiling (100 ft) >30 10≤X≤30 4≤X<10 2≤X<4 <2
Wind Speed (kt) <10 10≤X<20 20≤X<30 ≥30
Wind Gust (kt) <15 15≤X<25 25≤X<35 ≥35
Weather No Wx Reported VCTS -TS,-FZRA TS,FZRA +TS,+FZRA